Time;durP1;ratioP1;P1;durP2;ratioP2;P2;SDS_P1;SDS_P2;PMS_P1;PMS_P2;Temp;Humidity;BMP_temperature;BMP_pressure;BME280_temperature;BME280_humidity;BME280_pressure;Samples;Min_cycle;Max_cycle;Signal;HPM_P1;HPM_P2
2023/12/14 00:00:23;;;;;;;15.05;3.58;;;;;;;;;;5091455;28;20278;-74
2023/12/14 00:02:49;;;;;;;11.02;2.97;;;;;;;;;;5092283;28;20024;-73
2023/12/14 00:05:15;;;;;;;14.98;3.20;;;;;;;;;;5092374;28;20123;-73
2023/12/14 00:07:41;;;;;;;11.93;4.10;;;;;;;;;;5092591;28;20103;-73
2023/12/14 00:10:08;;;;;;;13.93;3.33;;;;;;;;;;5091731;28;20028;-73
2023/12/14 00:12:34;;;;;;;10.23;3.13;;;;;;;;;;5091901;28;20468;-73
2023/12/14 00:15:00;;;;;;;8.98;2.65;;;;;;;;;;5091720;28;20049;-75
2023/12/14 00:17:25;;;;;;;7.88;2.75;;;;;;;;;;5092112;28;20031;-72
2023/12/14 00:19:51;;;;;;;8.88;2.70;;;;;;;;;;5090252;28;20111;-73
2023/12/14 00:22:17;;;;;;;14.07;3.10;;;;;;;;;;5091900;28;20039;-74
2023/12/14 00:24:43;;;;;;;12.60;2.72;;;;;;;;;;5092141;28;20032;-74
2023/12/14 00:27:09;;;;;;;10.43;2.75;;;;;;;;;;5091422;28;20028;-73
2023/12/14 00:29:35;;;;;;;8.77;2.58;;;;;;;;;;5090861;28;20471;-74
2023/12/14 00:32:01;;;;;;;9.38;2.63;;;;;;;;;;5091702;28;20031;-74
2023/12/14 00:34:27;;;;;;;7.10;2.50;;;;;;;;;;5091908;28;20024;-74
2023/12/14 00:36:53;;;;;;;11.80;3.10;;;;;;;;;;5091835;28;20024;-74
2023/12/14 00:39:19;;;;;;;10.65;2.33;;;;;;;;;;5091130;28;20046;-73
2023/12/14 00:41:45;;;;;;;11.20;3.00;;;;;;;;;;5091444;28;20365;-73
2023/12/14 00:44:11;;;;;;;9.70;2.60;;;;;;;;;;5091541;28;20089;-74
2023/12/14 00:46:37;;;;;;;9.70;2.65;;;;;;;;;;5091452;28;20103;-74
2023/12/14 00:49:03;;;;;;;10.45;3.00;;;;;;;;;;5090841;28;20039;-74
2023/12/14 00:51:29;;;;;;;8.18;2.80;;;;;;;;;;5091525;28;20028;-74
2023/12/14 00:53:55;;;;;;;5.88;2.97;;;;;;;;;;5090873;28;20103;-74
2023/12/14 00:56:21;;;;;;;14.32;3.40;;;;;;;;;;5091265;28;20054;-73
2023/12/14 00:58:47;;;;;;;10.60;3.30;;;;;;;;;;5090594;28;20198;-73
2023/12/14 01:01:13;;;;;;;9.10;2.70;;;;;;;;;;5091330;28;20024;-74
2023/12/14 01:03:39;;;;;;;9.52;2.72;;;;;;;;;;5091501;28;20079;-74
2023/12/14 01:06:07;;;;;;;6.93;2.20;;;;;;;;;;5093221;28;20032;-74
2023/12/14 01:08:32;;;;;;;8.32;2.70;;;;;;;;;;5093070;28;20043;-73
2023/12/14 01:10:58;;;;;;;8.98;2.38;;;;;;;;;;5091052;28;20475;-73
2023/12/14 01:13:24;;;;;;;7.78;2.60;;;;;;;;;;5090938;28;20031;-74
2023/12/14 01:15:50;;;;;;;5.78;2.17;;;;;;;;;;5091138;28;20031;-74
2023/12/14 01:18:17;;;;;;;9.50;2.83;;;;;;;;;;5091592;28;20493;-75
2023/12/14 01:20:43;;;;;;;10.98;2.90;;;;;;;;;;5090665;28;20081;-73
2023/12/14 01:23:12;;;;;;;16.58;3.17;;;;;;;;;;5091751;28;20024;-73
2023/12/14 01:25:38;;;;;;;8.95;3.40;;;;;;;;;;5092117;28;20028;-74
2023/12/14 01:28:04;;;;;;;9.65;3.25;;;;;;;;;;5091803;28;20035;-73
2023/12/14 01:30:30;;;;;;;13.48;3.63;;;;;;;;;;5090808;28;20490;-74
2023/12/14 01:32:56;;;;;;;15.32;3.70;;;;;;;;;;5092387;28;20024;-73
2023/12/14 01:35:22;;;;;;;9.02;3.28;;;;;;;;;;5092302;28;20405;-73
2023/12/14 01:37:48;;;;;;;13.07;3.63;;;;;;;;;;5093447;28;20028;-74
2023/12/14 01:40:14;;;;;;;13.85;3.50;;;;;;;;;;5093650;28;20133;-74
2023/12/14 01:42:39;;;;;;;14.18;3.35;;;;;;;;;;5093520;28;20081;-73
2023/12/14 01:45:06;;;;;;;9.02;3.17;;;;;;;;;;5092643;28;20024;-73
2023/12/14 01:47:32;;;;;;;13.85;3.40;;;;;;;;;;5091583;28;20027;-73
2023/12/14 01:49:58;;;;;;;10.00;3.97;;;;;;;;;;5090070;28;20422;-74
2023/12/14 01:52:24;;;;;;;10.23;3.55;;;;;;;;;;5090981;28;20036;-73
2023/12/14 01:54:50;;;;;;;13.68;3.72;;;;;;;;;;5090838;28;20024;-73
2023/12/14 01:57:16;;;;;;;8.23;3.30;;;;;;;;;;5090574;28;20099;-73
2023/12/14 01:59:42;;;;;;;10.18;3.40;;;;;;;;;;5090138;28;20078;-74
2023/12/14 02:02:08;;;;;;;9.93;3.03;;;;;;;;;;5090779;28;20036;-72
2023/12/14 02:04:34;;;;;;;12.95;3.60;;;;;;;;;;5090624;28;20456;-73
2023/12/14 02:07:00;;;;;;;10.10;2.90;;;;;;;;;;5090868;28;20047;-77
2023/12/14 02:09:26;;;;;;;10.57;3.22;;;;;;;;;;5093342;28;20722;-77
2023/12/14 02:11:52;;;;;;;13.50;3.60;;;;;;;;;;5096326;28;20024;-76
2023/12/14 02:14:18;;;;;;;10.98;3.42;;;;;;;;;;5092433;28;20286;-78
2023/12/14 02:16:44;;;;;;;10.93;2.95;;;;;;;;;;5093571;28;20085;-76
2023/12/14 02:19:10;;;;;;;13.50;3.35;;;;;;;;;;5090572;28;20024;-76
2023/12/14 02:21:36;;;;;;;15.85;3.72;;;;;;;;;;5090381;28;20019;-75
2023/12/14 02:24:02;;;;;;;9.43;3.63;;;;;;;;;;5089511;28;20502;-77
2023/12/14 02:26:28;;;;;;;10.85;3.60;;;;;;;;;;5108454;28;20031;-76
2023/12/14 02:28:54;;;;;;;16.98;3.45;;;;;;;;;;5092326;28;20627;-76
2023/12/14 02:31:20;;;;;;;10.23;3.60;;;;;;;;;;5090067;28;20028;-76
2023/12/14 02:33:46;;;;;;;10.30;3.45;;;;;;;;;;5089947;28;20024;-75
2023/12/14 02:36:12;;;;;;;11.90;3.65;;;;;;;;;;5090313;28;20350;-76
2023/12/14 02:38:38;;;;;;;14.27;4.68;;;;;;;;;;5105437;28;20106;-77
2023/12/14 02:41:04;;;;;;;11.15;3.47;;;;;;;;;;5096882;28;20036;-76
2023/12/14 02:43:30;;;;;;;10.23;3.55;;;;;;;;;;5090402;28;20036;-76
2023/12/14 02:46:01;;;;;;;12.93;3.50;;;;;;;;;;5090043;28;20028;-76
2023/12/14 02:48:28;;;;;;;7.95;2.85;;;;;;;;;;5089694;28;20016;-76
2023/12/14 02:50:54;;;;;;;13.95;3.67;;;;;;;;;;5102673;28;20024;-75
2023/12/14 02:53:20;;;;;;;12.07;3.20;;;;;;;;;;5114639;28;20061;-76
2023/12/14 02:55:46;;;;;;;14.57;3.33;;;;;;;;;;5114891;28;20386;-76
2023/12/14 02:58:12;;;;;;;11.68;3.42;;;;;;;;;;5115161;28;20103;-76
2023/12/14 03:00:37;;;;;;;10.95;2.85;;;;;;;;;;5104653;28;20055;-77
2023/12/14 03:03:03;;;;;;;12.43;3.58;;;;;;;;;;5094435;28;20052;-76
2023/12/14 03:05:29;;;;;;;17.27;3.80;;;;;;;;;;5094708;28;20378;-76
2023/12/14 03:07:55;;;;;;;16.02;3.67;;;;;;;;;;5094570;28;20024;-75
2023/12/14 03:10:21;;;;;;;11.40;3.42;;;;;;;;;;5094120;28;20035;-74
2023/12/14 03:12:47;;;;;;;9.52;3.28;;;;;;;;;;5094554;28;20020;-77
2023/12/14 03:15:13;;;;;;;14.77;3.60;;;;;;;;;;5094993;28;20074;-75
2023/12/14 03:17:39;;;;;;;9.77;3.22;;;;;;;;;;5094448;28;20021;-77
2023/12/14 03:20:06;;;;;;;7.68;3.10;;;;;;;;;;5094167;28;20036;-75
2023/12/14 03:22:32;;;;;;;10.05;3.17;;;;;;;;;;5094205;28;20043;-75
2023/12/14 03:24:58;;;;;;;11.88;3.40;;;;;;;;;;5095712;28;20478;-75
2023/12/14 03:27:24;;;;;;;11.00;3.25;;;;;;;;;;5096997;28;20032;-76
2023/12/14 03:29:50;;;;;;;12.23;3.50;;;;;;;;;;5095402;28;20115;-75
2023/12/14 03:32:16;;;;;;;14.75;3.28;;;;;;;;;;5093951;28;20050;-76
2023/12/14 03:34:42;;;;;;;8.25;3.15;;;;;;;;;;5094294;28;20024;-74
2023/12/14 03:37:08;;;;;;;18.30;4.18;;;;;;;;;;5093906;28;20016;-75
2023/12/14 03:39:34;;;;;;;8.15;3.33;;;;;;;;;;5093732;28;20024;-74
2023/12/14 03:42:00;;;;;;;12.88;3.40;;;;;;;;;;5093845;28;20571;-75
2023/12/14 03:44:26;;;;;;;8.32;3.25;;;;;;;;;;5096707;28;20225;-74
2023/12/14 03:46:54;;;;;;;15.10;3.78;;;;;;;;;;5096021;28;20149;-75
2023/12/14 03:49:20;;;;;;;12.10;3.80;;;;;;;;;;5096381;28;20058;-75
2023/12/14 03:51:45;;;;;;;17.48;3.42;;;;;;;;;;5096791;28;20020;-76
2023/12/14 03:54:11;;;;;;;9.27;3.38;;;;;;;;;;5111789;28;20032;-75
2023/12/14 03:56:37;;;;;;;12.10;3.33;;;;;;;;;;5102868;28;20027;-76
2023/12/14 03:59:03;;;;;;;12.23;3.70;;;;;;;;;;5099388;28;20044;-78
2023/12/14 04:01:29;;;;;;;12.32;3.30;;;;;;;;;;5103118;28;20031;-78
2023/12/14 04:03:55;;;;;;;14.55;3.58;;;;;;;;;;5113521;28;20335;-76
2023/12/14 04:06:21;;;;;;;12.15;4.00;;;;;;;;;;5104773;28;20052;-75
2023/12/14 04:08:47;;;;;;;19.30;3.92;;;;;;;;;;5101105;28;20056;-75
2023/12/14 04:11:13;;;;;;;15.20;3.88;;;;;;;;;;5100869;28;20027;-76
2023/12/14 04:13:39;;;;;;;14.23;3.45;;;;;;;;;;5104880;28;20051;-75
2023/12/14 04:16:06;;;;;;;10.93;3.78;;;;;;;;;;5095266;28;20056;-75
2023/12/14 04:18:32;;;;;;;13.38;3.58;;;;;;;;;;5093400;28;20090;-74
2023/12/14 04:20:58;;;;;;;13.60;4.20;;;;;;;;;;5092862;28;20487;-76
2023/12/14 04:23:24;;;;;;;17.05;5.22;;;;;;;;;;5092766;28;20138;-75
2023/12/14 04:25:49;;;;;;;17.75;5.25;;;;;;;;;;5094454;28;20020;-78
2023/12/14 04:28:15;;;;;;;13.07;4.70;;;;;;;;;;5099786;28;20039;-79
2023/12/14 04:30:41;;;;;;;14.40;5.38;;;;;;;;;;5099472;28;20085;-77
2023/12/14 04:33:07;;;;;;;11.07;4.32;;;;;;;;;;5106448;28;20114;-77
2023/12/14 04:35:36;;;;;;;17.00;4.95;;;;;;;;;;5110350;28;20023;-77
2023/12/14 04:38:02;;;;;;;15.23;5.03;;;;;;;;;;5107096;28;20018;-76
2023/12/14 04:40:28;;;;;;;15.55;4.75;;;;;;;;;;5115753;28;20016;-77
2023/12/14 04:42:54;;;;;;;12.90;4.55;;;;;;;;;;5108456;28;20155;-76
2023/12/14 04:45:20;;;;;;;20.05;5.25;;;;;;;;;;5115104;28;20031;-76
2023/12/14 04:47:46;;;;;;;12.70;5.70;;;;;;;;;;5098459;28;20099;-77
2023/12/14 04:50:12;;;;;;;18.23;6.00;;;;;;;;;;5096639;28;20117;-76
2023/12/14 04:52:38;;;;;;;12.88;6.15;;;;;;;;;;5103686;28;20082;-77
2023/12/14 04:55:04;;;;;;;13.73;6.55;;;;;;;;;;5105086;27;20080;-79
2023/12/14 04:57:30;;;;;;;19.63;7.38;;;;;;;;;;5110041;28;20481;-76
2023/12/14 04:59:56;;;;;;;17.63;6.85;;;;;;;;;;5094545;28;20027;-78
2023/12/14 05:02:22;;;;;;;21.52;7.13;;;;;;;;;;5095503;28;20343;-76
2023/12/14 05:04:48;;;;;;;24.50;7.95;;;;;;;;;;5097444;28;20123;-76
2023/12/14 05:07:15;;;;;;;16.60;6.60;;;;;;;;;;5093540;28;20421;-75
2023/12/14 05:09:41;;;;;;;21.10;6.65;;;;;;;;;;5093712;28;20027;-76
2023/12/14 05:12:07;;;;;;;18.58;7.20;;;;;;;;;;5093738;28;20036;-76
2023/12/14 05:14:33;;;;;;;18.30;6.18;;;;;;;;;;5093460;28;20491;-76
2023/12/14 05:16:59;;;;;;;19.25;6.60;;;;;;;;;;5092873;28;20386;-77
2023/12/14 05:19:25;;;;;;;16.52;5.88;;;;;;;;;;5093251;28;20028;-75
2023/12/14 05:21:51;;;;;;;15.57;6.45;;;;;;;;;;5093384;28;20028;-77
2023/12/14 05:24:17;;;;;;;16.30;7.18;;;;;;;;;;5093826;28;20084;-75
2023/12/14 05:26:43;;;;;;;21.23;7.72;;;;;;;;;;5093647;28;20433;-75
2023/12/14 05:29:08;;;;;;;22.30;9.05;;;;;;;;;;5092871;28;20058;-76
2023/12/14 05:31:34;;;;;;;20.92;7.10;;;;;;;;;;5096429;28;20360;-76
2023/12/14 05:34:00;;;;;;;18.52;7.57;;;;;;;;;;5093457;28;20073;-78
2023/12/14 05:36:26;;;;;;;16.52;7.75;;;;;;;;;;5100093;28;20543;-78
2023/12/14 05:38:52;;;;;;;16.33;7.38;;;;;;;;;;5106609;28;20042;-80
2023/12/14 05:41:18;;;;;;;19.52;8.18;;;;;;;;;;5113964;28;20035;-78
2023/12/14 05:43:45;;;;;;;20.58;7.63;;;;;;;;;;5105261;28;20020;-80
2023/12/14 05:46:20;;;;;;;25.00;9.25;;;;;;;;;;5107726;28;20035;-78
2023/12/14 05:48:46;;;;;;;19.85;7.55;;;;;;;;;;5108165;28;20016;-80
2023/12/14 05:51:12;;;;;;;26.45;9.10;;;;;;;;;;5101968;28;20078;-79
2023/12/14 05:53:39;;;;;;;29.90;8.57;;;;;;;;;;5116603;28;20063;-78
2023/12/14 05:56:05;;;;;;;16.90;7.20;;;;;;;;;;5111030;28;20528;-77
2023/12/14 05:58:32;;;;;;;15.18;7.05;;;;;;;;;;5099737;28;20036;-75
2023/12/14 06:00:58;;;;;;;23.80;8.20;;;;;;;;;;5092741;28;20035;-77
2023/12/14 06:03:23;;;;;;;20.60;8.35;;;;;;;;;;5093412;28;20028;-79
2023/12/14 06:05:49;;;;;;;21.13;8.23;;;;;;;;;;5094484;28;20035;-76
2023/12/14 06:08:15;;;;;;;15.52;7.22;;;;;;;;;;5091412;28;20103;-77
2023/12/14 06:10:41;;;;;;;18.17;7.28;;;;;;;;;;5092111;28;20021;-76
2023/12/14 06:13:07;;;;;;;18.58;6.88;;;;;;;;;;5091803;28;20024;-76
2023/12/14 06:15:33;;;;;;;13.13;6.57;;;;;;;;;;5092079;28;20027;-75
2023/12/14 06:17:59;;;;;;;17.35;7.78;;;;;;;;;;5094014;28;20502;-77
2023/12/14 06:20:25;;;;;;;21.13;8.57;;;;;;;;;;5095821;28;20028;-77
2023/12/14 06:22:51;;;;;;;16.67;6.72;;;;;;;;;;5095701;28;20028;-75
2023/12/14 06:25:17;;;;;;;18.85;7.50;;;;;;;;;;5090349;28;20020;-76
2023/12/14 06:27:44;;;;;;;18.75;7.35;;;;;;;;;;5101088;28;20027;-78
2023/12/14 06:30:11;;;;;;;22.60;7.63;;;;;;;;;;5114680;27;20023;-77
2023/12/14 06:32:37;;;;;;;21.08;8.82;;;;;;;;;;5099853;28;20030;-76
2023/12/14 06:35:04;;;;;;;17.65;7.35;;;;;;;;;;5095275;28;20021;-76
2023/12/14 06:37:29;;;;;;;17.45;8.13;;;;;;;;;;5111112;28;20016;-77
2023/12/14 06:39:55;;;;;;;21.85;8.45;;;;;;;;;;5101373;28;20035;-79
2023/12/14 06:42:21;;;;;;;20.75;7.97;;;;;;;;;;5102217;28;20433;-77
2023/12/14 06:44:47;;;;;;;15.70;7.60;;;;;;;;;;5105940;28;20027;-76
2023/12/14 06:47:13;;;;;;;17.98;7.40;;;;;;;;;;5111960;28;20032;-77
2023/12/14 06:49:40;;;;;;;17.83;7.68;;;;;;;;;;5096382;28;20027;-77
2023/12/14 06:52:07;;;;;;;20.70;8.40;;;;;;;;;;5098967;28;20030;-76
2023/12/14 06:54:33;;;;;;;16.30;7.57;;;;;;;;;;5113826;28;20423;-78
2023/12/14 06:56:59;;;;;;;17.70;8.48;;;;;;;;;;5099357;28;20047;-78
2023/12/14 06:59:25;;;;;;;20.00;9.00;;;;;;;;;;5103628;28;20035;-78
2023/12/14 07:01:51;;;;;;;20.23;9.35;;;;;;;;;;5104441;28;20023;-77
2023/12/14 07:04:19;;;;;;;18.23;8.35;;;;;;;;;;5108203;28;20020;-77
2023/12/14 07:06:51;;;;;;;16.98;8.75;;;;;;;;;;5103520;28;20020;-77
2023/12/14 07:09:17;;;;;;;17.65;8.68;;;;;;;;;;5098593;28;20015;-77
2023/12/14 07:11:43;;;;;;;20.38;9.18;;;;;;;;;;5114169;28;20023;-77
2023/12/14 07:14:09;;;;;;;19.27;8.82;;;;;;;;;;5097729;28;20093;-76
2023/12/14 07:16:35;;;;;;;21.73;9.05;;;;;;;;;;5101957;28;20023;-77
2023/12/14 07:19:01;;;;;;;20.05;9.52;;;;;;;;;;5107300;28;20028;-82
2023/12/14 07:21:26;;;;;;;21.70;9.77;;;;;;;;;;5103696;28;20495;-76
2023/12/14 07:23:52;;;;;;;25.65;9.85;;;;;;;;;;5110114;28;20098;-78
2023/12/14 07:26:18;;;;;;;21.65;9.43;;;;;;;;;;5116379;28;20024;-76
2023/12/14 07:28:44;;;;;;;27.45;11.13;;;;;;;;;;5112843;28;20020;-76
2023/12/14 07:31:11;;;;;;;17.35;9.48;;;;;;;;;;5110137;28;20016;-78
2023/12/14 07:33:36;;;;;;;22.77;9.60;;;;;;;;;;5113925;28;20028;-77
2023/12/14 07:36:04;;;;;;;21.27;9.02;;;;;;;;;;5094233;28;20063;-76
2023/12/14 07:38:30;;;;;;;22.63;9.40;;;;;;;;;;5093851;28;20027;-76
2023/12/14 07:40:56;;;;;;;17.23;9.07;;;;;;;;;;5093412;28;20028;-77
2023/12/14 07:43:22;;;;;;;20.20;9.38;;;;;;;;;;5093693;28;20499;-76
2023/12/14 07:45:49;;;;;;;21.15;9.93;;;;;;;;;;5111173;28;20059;-76
2023/12/14 07:48:15;;;;;;;24.73;10.75;;;;;;;;;;5113829;28;20135;-77
2023/12/14 07:50:41;;;;;;;17.27;8.35;;;;;;;;;;5113108;28;20028;-76
2023/12/14 07:53:07;;;;;;;17.10;8.30;;;;;;;;;;5113951;28;20132;-75
2023/12/14 07:55:33;;;;;;;24.73;8.90;;;;;;;;;;5113853;28;20030;-75
2023/12/14 07:57:59;;;;;;;16.90;8.20;;;;;;;;;;5113864;28;20543;-76
2023/12/14 08:00:25;;;;;;;20.80;8.20;;;;;;;;;;5114281;28;20023;-77
2023/12/14 08:02:51;;;;;;;18.85;8.88;;;;;;;;;;5118547;28;20023;-76
2023/12/14 08:05:17;;;;;;;22.80;8.77;;;;;;;;;;5117589;28;20053;-76
2023/12/14 08:07:43;;;;;;;17.27;8.90;;;;;;;;;;5117618;28;20332;-79
2023/12/14 08:10:10;;;;;;;22.75;8.55;;;;;;;;;;5113640;28;20028;-76
2023/12/14 08:12:36;;;;;;;15.57;8.85;;;;;;;;;;5114492;28;20020;-80
2023/12/14 08:15:02;;;;;;;17.67;8.40;;;;;;;;;;5116079;28;20030;-76
2023/12/14 08:17:28;;;;;;;21.73;7.97;;;;;;;;;;5113520;28;20431;-75
2023/12/14 08:19:54;;;;;;;16.23;7.38;;;;;;;;;;5115072;28;20023;-75
2023/12/14 08:22:21;;;;;;;17.73;7.65;;;;;;;;;;5112577;28;20027;-78
2023/12/14 08:24:47;;;;;;;15.68;7.30;;;;;;;;;;5113378;28;20026;-75
2023/12/14 08:27:13;;;;;;;18.95;7.60;;;;;;;;;;5113366;28;20028;-76
2023/12/14 08:29:39;;;;;;;15.57;6.88;;;;;;;;;;5113446;28;20479;-75
2023/12/14 08:32:05;;;;;;;13.75;7.22;;;;;;;;;;5113617;28;20047;-80
2023/12/14 08:34:31;;;;;;;19.63;7.95;;;;;;;;;;5113772;28;20106;-76
2023/12/14 08:36:57;;;;;;;15.10;7.30;;;;;;;;;;5113880;28;20059;-77
2023/12/14 08:39:23;;;;;;;15.15;7.25;;;;;;;;;;5112182;28;20531;-77
2023/12/14 08:41:50;;;;;;;15.38;7.63;;;;;;;;;;5114289;28;20394;-74
2023/12/14 08:44:16;;;;;;;13.75;7.38;;;;;;;;;;5115227;27;20030;-77
2023/12/14 08:46:43;;;;;;;20.70;7.57;;;;;;;;;;5092931;28;20028;-75
2023/12/14 08:49:09;;;;;;;17.02;7.60;;;;;;;;;;5091862;28;20405;-76
2023/12/14 08:51:35;;;;;;;21.80;8.00;;;;;;;;;;5093959;28;20073;-75
2023/12/14 08:54:01;;;;;;;17.60;8.45;;;;;;;;;;5093166;28;20445;-76
2023/12/14 08:56:27;;;;;;;18.10;8.50;;;;;;;;;;5094061;28;20111;-78
2023/12/14 08:58:53;;;;;;;21.02;8.32;;;;;;;;;;5094076;28;20073;-75
2023/12/14 09:01:22;;;;;;;18.58;8.32;;;;;;;;;;5093084;28;20391;-77
2023/12/14 09:03:49;;;;;;;22.40;8.07;;;;;;;;;;5096946;28;20035;-74
2023/12/14 09:06:16;;;;;;;16.92;7.72;;;;;;;;;;5092306;28;20441;-78
2023/12/14 09:08:42;;;;;;;15.38;7.97;;;;;;;;;;5093355;28;20066;-79
2023/12/14 09:11:08;;;;;;;15.18;7.63;;;;;;;;;;5094630;28;20537;-75
2023/12/14 09:13:34;;;;;;;15.73;8.23;;;;;;;;;;5096887;28;20024;-79
2023/12/14 09:16:00;;;;;;;20.75;7.10;;;;;;;;;;5094370;28;20492;-77
2023/12/14 09:18:26;;;;;;;14.57;6.78;;;;;;;;;;5097766;28;20028;-78
2023/12/14 09:20:52;;;;;;;14.60;6.30;;;;;;;;;;5096210;28;20028;-79
2023/12/14 09:23:19;;;;;;;15.38;7.18;;;;;;;;;;5097455;28;20024;-79
2023/12/14 09:25:45;;;;;;;15.13;6.90;;;;;;;;;;5095812;28;20119;-77
2023/12/14 09:28:11;;;;;;;12.15;6.78;;;;;;;;;;5094861;28;20024;-76
2023/12/14 09:30:37;;;;;;;12.13;6.80;;;;;;;;;;5091809;28;20026;-79
2023/12/14 09:33:03;;;;;;;14.43;7.43;;;;;;;;;;5097098;28;20020;-78
2023/12/14 09:35:29;;;;;;;16.05;8.18;;;;;;;;;;5094751;28;20024;-77
2023/12/14 09:37:56;;;;;;;14.00;7.03;;;;;;;;;;5094737;28;20158;-78
2023/12/14 09:40:22;;;;;;;15.82;7.43;;;;;;;;;;5094009;28;20032;-79
2023/12/14 09:42:49;;;;;;;22.35;7.68;;;;;;;;;;5099248;28;20066;-80
2023/12/14 09:45:17;;;;;;;13.00;7.00;;;;;;;;;;5093430;28;20031;-79
2023/12/14 09:47:43;;;;;;;17.65;8.15;;;;;;;;;;5094828;28;20036;-77
2023/12/14 09:50:09;;;;;;;19.30;8.68;;;;;;;;;;5096343;28;20089;-80
2023/12/14 09:52:36;;;;;;;16.63;8.15;;;;;;;;;;5096526;28;20103;-77
2023/12/14 09:55:03;;;;;;;17.58;7.70;;;;;;;;;;5093439;28;20144;-76
2023/12/14 09:57:29;;;;;;;13.18;7.25;;;;;;;;;;5094286;28;20425;-80
2023/12/14 09:59:56;;;;;;;16.67;7.68;;;;;;;;;;5098379;28;20031;-78
2023/12/14 10:02:27;;;;;;;15.23;7.38;;;;;;;;;;5097329;28;20075;-78
2023/12/14 10:04:53;;;;;;;15.95;6.47;;;;;;;;;;5100664;28;20028;-81
2023/12/14 10:07:19;;;;;;;14.38;6.57;;;;;;;;;;5100648;28;20035;-78
2023/12/14 10:09:45;;;;;;;15.77;7.07;;;;;;;;;;5098714;28;20148;-78
2023/12/14 10:12:12;;;;;;;17.42;6.95;;;;;;;;;;5096885;28;20097;-76
2023/12/14 10:14:38;;;;;;;14.70;6.93;;;;;;;;;;5096455;28;20454;-76
2023/12/14 10:17:16;;;;;;;14.55;7.22;;;;;;;;;;5096640;28;20031;-78
2023/12/14 10:19:46;;;;;;;17.70;6.15;;;;;;;;;;5096303;28;20020;-78
2023/12/14 10:22:14;;;;;;;14.73;6.30;;;;;;;;;;5100913;28;20027;-78
2023/12/14 10:24:43;;;;;;;14.07;6.57;;;;;;;;;;5117487;28;20016;-76
2023/12/14 10:27:09;;;;;;;14.38;6.70;;;;;;;;;;5116211;28;20028;-76
2023/12/14 10:29:35;;;;;;;13.93;6.40;;;;;;;;;;5115981;28;20438;-79
2023/12/14 10:32:03;;;;;;;14.38;6.45;;;;;;;;;;5116368;28;20393;-77
2023/12/14 10:34:29;;;;;;;13.45;6.03;;;;;;;;;;5117469;28;20023;-76
2023/12/14 10:36:55;;;;;;;13.65;6.65;;;;;;;;;;5117256;28;20068;-79
2023/12/14 10:39:21;;;;;;;11.00;6.03;;;;;;;;;;5118291;28;20031;-78
2023/12/14 10:41:51;;;;;;;14.80;5.55;;;;;;;;;;5117710;28;20092;-76
2023/12/14 10:44:17;;;;;;;13.50;5.80;;;;;;;;;;5118022;28;20119;-78
2023/12/14 10:46:46;;;;;;;14.98;6.43;;;;;;;;;;5104290;28;20035;-75
2023/12/14 10:49:12;;;;;;;14.15;6.13;;;;;;;;;;5106547;28;20031;-77
2023/12/14 10:51:42;;;;;;;16.13;7.18;;;;;;;;;;5096075;28;20035;-76
2023/12/14 10:54:08;;;;;;;14.90;6.03;;;;;;;;;;5097545;28;20022;-76
2023/12/14 10:56:34;;;;;;;15.90;6.88;;;;;;;;;;5095254;28;20089;-76
2023/12/14 10:59:02;;;;;;;15.80;7.15;;;;;;;;;;5094727;28;20180;-77
2023/12/14 11:01:29;;;;;;;13.30;7.13;;;;;;;;;;5095546;28;20028;-76
2023/12/14 11:03:56;;;;;;;14.88;6.82;;;;;;;;;;5095440;28;20054;-77
2023/12/14 11:06:22;;;;;;;16.73;6.65;;;;;;;;;;5095414;28;20454;-77
2023/12/14 11:08:48;;;;;;;18.63;6.88;;;;;;;;;;5095183;28;20041;-75
2023/12/14 11:11:20;;;;;;;20.90;7.43;;;;;;;;;;5095134;28;20020;-76
2023/12/14 11:13:47;;;;;;;24.13;7.78;;;;;;;;;;5092709;28;20024;-76
2023/12/14 11:16:15;;;;;;;19.20;6.95;;;;;;;;;;5094505;28;20066;-78
2023/12/14 11:18:41;;;;;;;13.40;6.38;;;;;;;;;;5096705;28;20027;-78
2023/12/14 11:21:07;;;;;;;22.95;8.43;;;;;;;;;;5094651;28;20024;-75
2023/12/14 11:23:34;;;;;;;17.13;6.93;;;;;;;;;;5094341;28;20160;-76
2023/12/14 11:26:03;;;;;;;13.13;6.65;;;;;;;;;;5094542;28;20425;-76
2023/12/14 11:28:29;;;;;;;15.65;6.93;;;;;;;;;;5094702;28;20022;-76
2023/12/14 11:30:55;;;;;;;15.77;7.03;;;;;;;;;;5093818;28;20091;-77
2023/12/14 11:33:22;;;;;;;22.05;9.23;;;;;;;;;;5094326;28;20198;-78
2023/12/14 11:35:48;;;;;;;15.57;7.45;;;;;;;;;;5094252;28;20024;-75
2023/12/14 11:38:14;;;;;;;13.48;6.85;;;;;;;;;;5094694;28;20377;-75
2023/12/14 11:40:40;;;;;;;13.52;6.82;;;;;;;;;;5092353;28;20023;-76
2023/12/14 11:43:07;;;;;;;17.58;6.88;;;;;;;;;;5092587;28;20056;-76
2023/12/14 11:45:34;;;;;;;20.73;7.65;;;;;;;;;;5093457;28;20466;-74
2023/12/14 11:48:04;;;;;;;18.52;8.05;;;;;;;;;;5092738;28;20082;-76
2023/12/14 11:50:30;;;;;;;17.33;7.13;;;;;;;;;;5092718;28;20048;-76
2023/12/14 11:52:57;;;;;;;17.50;7.22;;;;;;;;;;5092844;28;20144;-76
2023/12/14 11:55:23;;;;;;;19.27;8.35;;;;;;;;;;5093492;28;20491;-77
2023/12/14 11:57:49;;;;;;;19.52;7.40;;;;;;;;;;5092881;28;20512;-76
2023/12/14 12:00:16;;;;;;;19.98;7.93;;;;;;;;;;5091908;28;20126;-75
2023/12/14 12:02:42;;;;;;;13.98;7.72;;;;;;;;;;5092392;28;20027;-75
2023/12/14 12:05:08;;;;;;;15.15;8.05;;;;;;;;;;5091785;28;20036;-76
2023/12/14 12:07:34;;;;;;;16.20;7.95;;;;;;;;;;5092133;28;20103;-76
2023/12/14 12:10:00;;;;;;;13.38;7.72;;;;;;;;;;5103256;28;20059;-77
2023/12/14 12:12:26;;;;;;;20.65;8.77;;;;;;;;;;5112413;28;20434;-77
2023/12/14 12:14:53;;;;;;;17.30;7.95;;;;;;;;;;5101062;28;20763;-75
2023/12/14 12:17:19;;;;;;;22.98;8.80;;;;;;;;;;5092942;28;20020;-76
2023/12/14 12:19:45;;;;;;;20.88;7.70;;;;;;;;;;5108964;28;20066;-78
2023/12/14 12:22:11;;;;;;;18.83;8.20;;;;;;;;;;5115352;28;20019;-76
2023/12/14 12:24:37;;;;;;;16.30;8.63;;;;;;;;;;5112785;28;20043;-78
2023/12/14 12:27:04;;;;;;;21.60;8.35;;;;;;;;;;5112958;28;20034;-75
2023/12/14 12:29:30;;;;;;;17.15;8.25;;;;;;;;;;5111915;28;20027;-75
2023/12/14 12:31:56;;;;;;;17.73;7.75;;;;;;;;;;5112588;28;20061;-76
2023/12/14 12:34:22;;;;;;;21.10;8.85;;;;;;;;;;5112789;28;20077;-78
2023/12/14 12:36:48;;;;;;;24.40;9.10;;;;;;;;;;5114554;28;20016;-78
2023/12/14 12:39:14;;;;;;;30.65;10.40;;;;;;;;;;5113269;28;20478;-75
2023/12/14 12:41:40;;;;;;;20.77;9.40;;;;;;;;;;5113332;28;20024;-75
2023/12/14 12:44:08;;;;;;;22.75;8.93;;;;;;;;;;5113158;28;20081;-77
2023/12/14 12:46:34;;;;;;;23.75;9.10;;;;;;;;;;5112795;28;20547;-75
2023/12/14 12:49:01;;;;;;;21.38;9.02;;;;;;;;;;5111229;28;20110;-76
2023/12/14 12:51:27;;;;;;;27.85;9.35;;;;;;;;;;5112032;28;20024;-76
2023/12/14 12:53:53;;;;;;;17.67;8.32;;;;;;;;;;5111664;28;20052;-76
2023/12/14 12:56:19;;;;;;;20.08;9.57;;;;;;;;;;5112041;28;20485;-75
2023/12/14 12:58:46;;;;;;;22.10;8.43;;;;;;;;;;5110854;28;20039;-75
2023/12/14 13:01:12;;;;;;;18.98;8.65;;;;;;;;;;5112372;28;20581;-76
2023/12/14 13:03:38;;;;;;;22.30;8.65;;;;;;;;;;5111362;28;20517;-75
2023/12/14 13:06:04;;;;;;;17.73;8.20;;;;;;;;;;5112551;28;20019;-77
2023/12/14 13:08:30;;;;;;;16.80;7.78;;;;;;;;;;5111552;28;20032;-76
2023/12/14 13:10:56;;;;;;;21.90;9.40;;;;;;;;;;5111183;28;20020;-76
2023/12/14 13:13:23;;;;;;;21.70;9.07;;;;;;;;;;5112245;28;20111;-76
2023/12/14 13:15:49;;;;;;;18.67;8.95;;;;;;;;;;5111813;28;20539;-76
2023/12/14 13:18:18;;;;;;;21.35;9.70;;;;;;;;;;5113176;28;20047;-76
2023/12/14 13:20:44;;;;;;;24.30;9.32;;;;;;;;;;5112498;28;20075;-77
2023/12/14 13:23:10;;;;;;;21.33;8.43;;;;;;;;;;5115097;28;20019;-77
2023/12/14 13:25:36;;;;;;;20.58;9.05;;;;;;;;;;5116490;28;20035;-78
2023/12/14 13:28:04;;;;;;;20.55;8.10;;;;;;;;;;5119438;28;20035;-78
2023/12/14 13:30:30;;;;;;;16.80;8.13;;;;;;;;;;5123519;28;20022;-80
2023/12/14 13:32:56;;;;;;;17.80;7.85;;;;;;;;;;5121676;28;20019;-78
2023/12/14 13:35:24;;;;;;;17.58;8.65;;;;;;;;;;5121810;28;20024;-79
2023/12/14 13:37:50;;;;;;;19.75;8.38;;;;;;;;;;5129438;28;20012;-77
2023/12/14 13:40:16;;;;;;;17.58;8.15;;;;;;;;;;5131714;28;20094;-78
2023/12/14 13:42:42;;;;;;;19.77;8.98;;;;;;;;;;5130961;28;20016;-79
2023/12/14 13:45:09;;;;;;;17.70;8.10;;;;;;;;;;5134736;28;20040;-77
2023/12/14 13:47:35;;;;;;;21.17;9.57;;;;;;;;;;5127662;28;20031;-75
2023/12/14 13:50:03;;;;;;;19.83;8.70;;;;;;;;;;5112724;28;20016;-74
2023/12/14 13:52:30;;;;;;;15.55;8.40;;;;;;;;;;5105296;28;20032;-74
2023/12/14 13:54:56;;;;;;;19.02;9.10;;;;;;;;;;5101126;28;20013;-75
2023/12/14 13:57:25;;;;;;;14.50;7.82;;;;;;;;;;5098838;28;20039;-74
2023/12/14 13:59:51;;;;;;;19.08;8.05;;;;;;;;;;5126784;28;20036;-76
2023/12/14 14:02:17;;;;;;;17.55;8.20;;;;;;;;;;5109728;28;20498;-76
2023/12/14 14:04:43;;;;;;;14.95;8.50;;;;;;;;;;5115717;28;20034;-76
2023/12/14 14:07:09;;;;;;;17.20;8.52;;;;;;;;;;5117063;28;20055;-76
2023/12/14 14:09:35;;;;;;;14.63;7.65;;;;;;;;;;5110448;28;20548;-76
2023/12/14 14:12:01;;;;;;;18.10;8.30;;;;;;;;;;5113617;28;20020;-75
2023/12/14 14:14:27;;;;;;;18.15;8.70;;;;;;;;;;5100359;28;20020;-75
2023/12/14 14:16:53;;;;;;;13.13;8.05;;;;;;;;;;5100374;28;20019;-75
2023/12/14 14:19:19;;;;;;;17.27;7.95;;;;;;;;;;5108443;28;20028;-75
2023/12/14 14:21:46;;;;;;;18.65;8.60;;;;;;;;;;5103320;28;20031;-75
2023/12/14 14:24:12;;;;;;;19.92;7.65;;;;;;;;;;5132348;28;20028;-77